Time;durP1;ratioP1;P1;durP2;ratioP2;P2;SDS_P1;SDS_P2;PMS_P1;PMS_P2;Temp;Humidity;BMP_temperature;BMP_pressure;BME280_temperature;BME280_humidity;BME280_pressure;Samples;Min_cycle;Max_cycle;Signal;HPM_P1;HPM_P2
2021/11/20 00:00:53;;;;;;;;;0.00;0.00;;;;;10.63;70.31;102671.03;5083521;28;45313;-83
2021/11/20 00:03:19;;;;;;;;;0.00;0.00;;;;;10.54;70.56;102652.47;5082277;28;45271;-83
2021/11/20 00:05:47;;;;;;;;;0.00;0.00;;;;;10.57;70.54;102657.78;5083737;28;45161;-83
2021/11/20 00:08:13;;;;;;;;;1.00;1.00;;;;;10.58;70.58;102653.47;5065134;28;46513;-83
2021/11/20 00:10:42;;;;;;;;;0.00;0.00;;;;;10.44;70.75;102632.06;5083493;28;45315;-83
2021/11/20 00:13:08;;;;;;;;;0.00;0.00;;;;;10.59;70.60;102671.75;5083739;28;45244;-82
2021/11/20 00:15:37;;;;;;;;;0.75;0.00;;;;;10.16;70.62;102605.81;5083766;28;45262;-83
2021/11/20 00:18:03;;;;;;;;;0.00;0.00;;;;;10.49;70.62;102646.19;5065319;28;47481;-82
2021/11/20 00:20:31;;;;;;;;;1.00;0.00;;;;;10.34;70.57;102636.00;5083739;28;45406;-82
2021/11/20 00:22:59;;;;;;;;;0.00;0.00;;;;;10.29;70.85;102612.38;5084248;28;45331;-82
2021/11/20 00:25:29;;;;;;;;;1.50;0.75;;;;;10.44;70.97;102640.75;5085153;28;45202;-83
2021/11/20 00:27:57;;;;;;;;;0.00;0.00;;;;;10.54;70.51;102660.28;5083292;28;45458;-83
2021/11/20 00:30:28;;;;;;;;;0.00;0.00;;;;;10.46;70.72;102638.25;5083066;28;45301;-82
2021/11/20 00:33:12;;;;;;;;;0.00;0.00;;;;;10.49;70.95;102654.88;5081752;28;45369;-83
2021/11/20 00:35:42;;;;;;;;;0.75;0.00;;;;;10.43;70.84;102632.88;5083332;28;45324;-82
2021/11/20 00:38:10;;;;;;;;;0.00;0.00;;;;;10.51;70.69;102641.94;5082917;28;45301;-82
2021/11/20 00:40:39;;;;;;;;;0.00;0.00;;;;;10.36;71.02;102616.13;5083089;28;45176;-82
2021/11/20 00:43:05;;;;;;;;;1.00;0.00;;;;;10.41;70.73;102621.53;5083286;28;45312;-82
2021/11/20 00:45:31;;;;;;;;;0.50;0.00;;;;;10.33;70.90;102603.00;5065273;28;45577;-82
2021/11/20 00:47:57;;;;;;;;;0.00;0.00;;;;;10.40;70.78;102628.44;5082978;28;46541;-82
2021/11/20 00:50:24;;;;;;;;;0.00;0.00;;;;;10.34;70.92;102608.25;5064462;28;45721;-82
2021/11/20 00:52:50;;;;;;;;;0.00;0.00;;;;;10.24;70.76;102572.28;5081969;28;45246;-82
2021/11/20 00:55:23;;;;;;;;;0.00;0.00;;;;;10.53;70.85;102622.03;5083329;28;45525;-83
2021/11/20 00:57:49;;;;;;;;;0.75;0.75;;;;;10.50;70.93;102624.50;5082867;28;46081;-82
2021/11/20 01:00:18;;;;;;;;;0.00;0.00;;;;;10.34;71.03;102607.34;5082860;28;45227;-82
2021/11/20 01:02:44;;;;;;;;;0.00;0.00;;;;;10.28;71.26;102597.59;5064853;28;45338;-82
2021/11/20 01:05:11;;;;;;;;;0.00;0.00;;;;;10.23;70.98;102593.94;5082831;28;45470;-83
2021/11/20 01:07:36;;;;;;;;;0.25;0.00;;;;;10.33;71.48;102603.88;5082600;28;46384;-82
2021/11/20 01:10:06;;;;;;;;;1.00;0.00;;;;;10.39;71.34;102608.44;5082397;28;45319;-82
2021/11/20 01:12:32;;;;;;;;;0.00;0.00;;;;;10.39;71.06;102608.44;5083129;28;45249;-82
2021/11/20 01:14:59;;;;;;;;;0.00;0.00;;;;;10.43;71.30;102604.22;5064731;28;45517;-82
2021/11/20 01:17:26;;;;;;;;;0.00;0.00;;;;;10.41;71.13;102603.31;5082901;28;45322;-82
2021/11/20 01:19:53;;;;;;;;;0.00;0.00;;;;;10.34;71.42;102599.56;5064326;28;45879;-82
2021/11/20 01:22:22;;;;;;;;;0.50;0.50;;;;;10.25;71.43;102590.56;5081610;28;45264;-82
2021/11/20 01:24:49;;;;;;;;;1.00;1.00;;;;;10.32;71.82;102589.06;5082781;28;45414;-82
2021/11/20 01:27:15;;;;;;;;;1.25;0.00;;;;;10.30;71.19;102572.53;5082590;28;46240;-82
2021/11/20 01:29:40;;;;;;;;;0.00;0.00;;;;;10.21;71.36;102549.63;5082666;28;45235;-82
2021/11/20 01:32:06;;;;;;;;;0.00;0.00;;;;;10.26;71.46;102548.06;5064108;28;45547;-83
2021/11/20 01:34:32;;;;;;;;;0.00;0.00;;;;;10.48;71.46;102587.13;5082843;28;45494;-82
2021/11/20 01:37:00;;;;;;;;;0.00;0.00;;;;;10.41;71.55;102572.94;5082683;28;45217;-83
2021/11/20 01:39:30;;;;;;;;;0.00;0.00;;;;;10.50;71.56;102580.22;5063919;28;45860;-82
2021/11/20 01:42:00;;;;;;;;;0.00;0.00;;;;;10.48;71.16;102580.19;5086117;28;45383;-82
2021/11/20 01:44:55;;;;;;;;;0.00;0.00;;;;;10.54;71.33;102587.38;5068051;28;45378;-82
2021/11/20 01:47:23;;;;;;;;;0.00;0.00;;;;;10.56;71.33;102583.09;5083068;28;45263;-82
2021/11/20 01:49:56;;;;;;;;;0.00;0.00;;;;;10.56;71.47;102588.28;5083871;28;45339;-82
2021/11/20 01:52:34;;;;;;;;;0.00;0.00;;;;;10.57;71.23;102583.97;5085820;28;45309;-82
2021/11/20 01:55:37;;;;;;;;;0.00;0.00;;;;;10.57;71.42;102577.03;5085803;28;45322;-82
2021/11/20 01:58:27;;;;;;;;;0.00;0.00;;;;;10.25;71.34;102516.78;5085736;28;46319;-82
2021/11/20 02:01:27;;;;;;;;;0.00;0.00;;;;;10.49;71.57;102568.06;5067311;28;45285;-83
2021/11/20 02:03:55;;;;;;;;;0.00;0.00;;;;;10.48;71.46;102567.16;5085781;28;45252;-82
2021/11/20 02:06:32;;;;;;;;;0.25;0.00;;;;;10.43;71.61;102567.78;5084549;28;45990;-82
2021/11/20 02:09:01;;;;;;;;;0.50;0.50;;;;;10.42;71.94;102568.63;5085150;28;45322;-82
2021/11/20 02:11:30;;;;;;;;;0.00;0.00;;;;;10.39;71.63;102572.88;5067254;28;45374;-82
2021/11/20 02:13:55;;;;;;;;;1.00;1.00;;;;;10.36;71.83;102569.28;5084223;28;45429;-82
2021/11/20 02:16:28;;;;;;;;;0.00;0.00;;;;;10.45;72.09;102566.13;5085761;28;45295;-82
2021/11/20 02:18:59;;;;;;;;;0.50;0.00;;;;;10.50;72.19;102564.63;5085331;28;46290;-82
2021/11/20 02:21:35;;;;;;;;;0.00;0.00;;;;;10.20;72.03;102514.00;5085171;28;45223;-83
2021/11/20 02:24:00;;;;;;;;;0.00;0.00;;;;;10.57;71.76;102565.75;5085012;28;45428;-82
2021/11/20 02:26:26;;;;;;;;;0.75;0.00;;;;;10.59;71.57;102564.06;5066620;28;50077;-82
2021/11/20 02:28:52;;;;;;;;;0.00;0.00;;;;;10.33;71.52;102509.28;5085159;28;45419;-82
2021/11/20 02:31:18;;;;;;;;;1.00;1.00;;;;;10.56;71.68;102538.81;5085227;28;45339;-82
2021/11/20 02:33:46;;;;;;;;;0.00;0.00;;;;;10.62;71.21;102544.25;5084837;28;45342;-82
2021/11/20 02:36:14;;;;;;;;;0.00;0.00;;;;;10.39;71.01;102517.31;5066973;28;45371;-82
2021/11/20 02:38:42;;;;;;;;;1.50;0.25;;;;;10.48;71.90;102553.28;5083780;28;47412;-82
2021/11/20 02:41:10;;;;;;;;;0.00;0.00;;;;;10.38;71.45;102544.16;5083648;28;45355;-82
2021/11/20 02:43:38;;;;;;;;;0.00;0.00;;;;;10.25;71.82;102521.97;5066861;28;45272;-82
2021/11/20 02:46:06;;;;;;;;;0.00;0.00;;;;;10.37;71.67;102539.78;5084065;28;45480;-82
2021/11/20 02:48:31;;;;;;;;;0.75;0.75;;;;;10.30;71.86;102533.47;5084643;28;47016;-82
2021/11/20 02:51:06;;;;;;;;;0.00;0.00;;;;;10.37;71.85;102537.19;5066502;28;45355;-82
2021/11/20 02:53:47;;;;;;;;;0.25;0.25;;;;;10.25;71.75;102535.91;5084903;28;45318;-82
2021/11/20 02:56:22;;;;;;;;;1.25;0.00;;;;;10.24;71.95;102531.53;5085504;28;45278;-83
2021/11/20 02:58:49;;;;;;;;;0.00;0.00;;;;;10.22;72.22;102527.97;5066031;28;47446;-83
2021/11/20 03:01:42;;;;;;;;;0.00;0.00;;;;;10.16;72.11;102524.25;5066359;28;45264;-83
2021/11/20 03:04:11;;;;;;;;;0.00;0.00;;;;;10.02;72.23;102501.19;5081299;28;45558;-83
2021/11/20 03:06:37;;;;;;;;;2.00;2.00;;;;;10.17;72.60;102520.81;5066502;28;45460;-83
2021/11/20 03:09:05;;;;;;;;;1.00;1.00;;;;;10.16;72.42;102513.84;5066170;28;46283;-83
2021/11/20 03:11:31;;;;;;;;;0.00;0.00;;;;;10.11;72.34;102517.13;5084576;28;45451;-83
2021/11/20 03:13:57;;;;;;;;;0.25;0.00;;;;;10.05;72.27;102516.91;5084469;28;45291;-83
2021/11/20 03:16:24;;;;;;;;;2.00;0.00;;;;;10.01;72.28;102504.59;5085200;28;45636;-84
2021/11/20 03:18:50;;;;;;;;;0.50;0.50;;;;;9.87;72.60;102486.72;5066340;28;46585;-82
2021/11/20 03:21:16;;;;;;;;;1.00;0.00;;;;;9.87;72.46;102475.44;5065980;28;46167;-81
2021/11/20 03:23:46;;;;;;;;;1.00;1.00;;;;;10.08;72.43;102508.34;5084360;28;45303;-81
2021/11/20 03:26:12;;;;;;;;;0.75;0.00;;;;;10.04;72.27;102485.63;5068856;28;45502;-83
2021/11/20 03:28:38;;;;;;;;;0.00;0.00;;;;;10.13;72.15;102497.28;5088320;28;45474;-84
2021/11/20 03:31:03;;;;;;;;;0.25;0.00;;;;;10.04;71.89;102477.81;5088637;28;45263;-84
2021/11/20 03:33:29;;;;;;;;;0.00;0.00;;;;;10.04;71.99;102470.88;5070555;28;45295;-83
2021/11/20 03:35:54;;;;;;;;;1.00;1.00;;;;;10.05;71.67;102477.88;5088154;28;45615;-84
2021/11/20 03:38:20;;;;;;;;;0.00;0.00;;;;;9.84;72.10;102462.31;5086995;28;45477;-84
2021/11/20 03:40:47;;;;;;;;;0.00;0.00;;;;;9.95;72.51;102481.81;5086203;28;45273;-82
2021/11/20 03:43:12;;;;;;;;;0.00;0.00;;;;;9.67;72.48;102423.50;5084254;28;45255;-83
2021/11/20 03:45:38;;;;;;;;;1.00;1.00;;;;;9.88;72.43;102453.78;5083100;28;45391;-82
2021/11/20 03:48:06;;;;;;;;;0.25;0.00;;;;;10.01;72.52;102460.34;5065722;28;47218;-82
2021/11/20 03:50:32;;;;;;;;;0.00;0.00;;;;;10.02;72.38;102462.16;5097469;28;45150;-82
2021/11/20 03:52:57;;;;;;;;;0.50;0.50;;;;;9.88;72.37;102433.88;5080132;28;45293;-83
2021/11/20 03:55:27;;;;;;;;;0.25;0.25;;;;;9.99;72.56;102436.00;5072938;28;45220;-82
2021/11/20 03:57:52;;;;;;;;;0.00;0.00;;;;;10.10;72.24;102450.31;5082867;28;48301;-82
2021/11/20 04:00:20;;;;;;;;;0.00;0.00;;;;;10.11;71.85;102438.19;5085201;28;45322;-82
2021/11/20 04:02:47;;;;;;;;;3.00;0.00;;;;;10.17;71.66;102453.16;5083593;28;45302;-82
2021/11/20 04:05:13;;;;;;;;;0.75;0.25;;;;;10.14;71.34;102448.72;5083885;28;45401;-82
2021/11/20 04:07:38;;;;;;;;;0.00;0.00;;;;;9.82;71.75;102393.72;5083521;28;45328;-82
2021/11/20 04:10:07;;;;;;;;;0.25;0.00;;;;;10.13;71.74;102445.22;5083675;28;45149;-82
2021/11/20 04:12:33;;;;;;;;;0.00;0.00;;;;;10.16;71.40;102440.97;5082405;28;45413;-82
2021/11/20 04:14:58;;;;;;;;;0.50;0.50;;;;;10.10;71.12;102421.69;5083830;28;45422;-82
2021/11/20 04:17:23;;;;;;;;;0.50;0.00;;;;;9.87;71.36;102392.19;5065491;28;48032;-82
2021/11/20 04:19:49;;;;;;;;;0.00;0.00;;;;;9.91;71.43;102394.06;5083394;28;45326;-82
2021/11/20 04:22:14;;;;;;;;;2.00;0.00;;;;;9.76;71.38;102370.97;5083480;28;45279;-83
2021/11/20 04:24:39;;;;;;;;;0.00;0.00;;;;;9.99;71.50;102402.19;5084896;28;45319;-81
2021/11/20 04:27:06;;;;;;;;;0.00;0.00;;;;;10.05;71.59;102417.13;5083755;28;45724;-83
2021/11/20 04:29:32;;;;;;;;;1.00;1.00;;;;;9.62;71.76;102345.31;5065048;28;45758;-82
2021/11/20 04:31:57;;;;;;;;;0.00;0.00;;;;;9.95;71.77;102393.34;5083207;28;45265;-83
2021/11/20 04:34:23;;;;;;;;;0.00;0.00;;;;;9.83;71.80;102362.56;5090062;28;44868;-82
2021/11/20 04:36:48;;;;;;;;;0.00;0.00;;;;;10.19;71.65;102409.81;5070772;28;47035;-82
2021/11/20 04:39:13;;;;;;;;;2.00;0.00;;;;;10.00;71.24;102375.31;5085677;28;45230;-83
2021/11/20 04:41:39;;;;;;;;;0.00;0.00;;;;;10.05;71.13;102392.00;5083844;28;45444;-83
2021/11/20 04:44:05;;;;;;;;;0.00;0.00;;;;;10.05;70.92;102398.91;5083719;28;45567;-82
2021/11/20 04:46:30;;;;;;;;;0.00;0.00;;;;;9.78;71.04;102377.13;5064929;28;47400;-82
2021/11/20 04:48:56;;;;;;;;;0.00;0.00;;;;;9.87;70.54;102408.66;5083098;28;45362;-82
2021/11/20 04:51:23;;;;;;;;;0.00;0.00;;;;;9.79;70.94;102404.00;5064460;28;45280;-82
2021/11/20 04:53:50;;;;;;;;;0.00;0.00;;;;;9.66;71.07;102392.25;5082958;28;45325;-82
2021/11/20 04:56:18;;;;;;;;;0.00;0.00;;;;;9.75;71.04;102403.00;5082827;28;46422;-82
2021/11/20 04:58:45;;;;;;;;;0.00;0.00;;;;;9.55;71.30;102366.69;5082952;28;45227;-82
2021/11/20 05:01:11;;;;;;;;;0.00;0.00;;;;;9.78;70.98;102400.53;5082826;28;45367;-83
2021/11/20 05:03:38;;;;;;;;;0.00;0.00;;;;;9.70;70.67;102379.44;5083977;28;45473;-82
2021/11/20 05:06:04;;;;;;;;;0.00;0.00;;;;;9.80;70.94;102383.25;5082357;28;46275;-83
2021/11/20 05:08:29;;;;;;;;;0.00;0.00;;;;;9.75;71.12;102379.59;5082568;28;45308;-82
2021/11/20 05:10:55;;;;;;;;;1.00;0.00;;;;;9.81;70.69;102376.34;5082708;28;45413;-82
2021/11/20 05:13:22;;;;;;;;;0.75;0.00;;;;;9.68;70.65;102356.78;5081255;28;45342;-82
2021/11/20 05:15:50;;;;;;;;;0.00;0.00;;;;;9.85;70.57;102386.03;5084261;28;46112;-82
2021/11/20 05:18:15;;;;;;;;;1.00;0.00;;;;;9.10;70.73;102264.47;5086150;28;45259;-82
2021/11/20 05:20:42;;;;;;;;;0.00;0.00;;;;;9.70;70.71;102374.22;5086130;28;45627;-82
2021/11/20 05:23:08;;;;;;;;;0.00;0.00;;;;;9.67;70.82;102363.69;5086514;28;45299;-82
2021/11/20 05:25:34;;;;;;;;;0.75;0.75;;;;;9.62;70.91;102349.66;5085809;28;45279;-82
2021/11/20 05:27:59;;;;;;;;;0.00;0.00;;;;;9.80;70.76;102385.00;5085794;28;45368;-82
2021/11/20 05:30:32;;;;;;;;;0.00;0.00;;;;;9.78;70.76;102392.72;5086086;28;45350;-82
2021/11/20 05:33:00;;;;;;;;;0.00;0.00;;;;;9.38;70.68;102333.13;5084763;28;45410;-82
2021/11/20 05:35:27;;;;;;;;;0.00;0.00;;;;;9.52;71.00;102355.31;5067479;28;47384;-82
2021/11/20 05:37:53;;;;;;;;;0.00;0.00;;;;;9.58;71.09;102382.44;5086221;28;45249;-82
2021/11/20 05:40:20;;;;;;;;;0.00;0.00;;;;;9.59;71.37;102373.78;5086047;28;45258;-84
2021/11/20 05:42:49;;;;;;;;;0.00;0.00;;;;;9.41;71.28;102354.88;5067995;28;45275;-82
2021/11/20 05:45:19;;;;;;;;;0.00;0.00;;;;;9.51;71.59;102375.22;5085811;28;45384;-83
2021/11/20 05:47:45;;;;;;;;;0.00;0.00;;;;;9.42;71.57;102354.06;5085844;28;45242;-83
2021/11/20 05:50:11;;;;;;;;;0.00;0.00;;;;;9.36;71.38;102336.50;5084099;28;45480;-82
2021/11/20 05:52:37;;;;;;;;;2.00;0.00;;;;;9.47;71.84;102363.78;5086014;28;45411;-83
2021/11/20 05:55:04;;;;;;;;;0.00;0.00;;;;;9.52;71.98;102363.13;5067312;28;48452;-83
2021/11/20 05:57:29;;;;;;;;;0.00;0.00;;;;;9.34;71.61;102335.56;5067495;28;45960;-83
2021/11/20 05:59:54;;;;;;;;;0.00;0.00;;;;;9.65;71.56;102372.28;5085830;28;45296;-83
2021/11/20 06:02:20;;;;;;;;;0.00;0.00;;;;;9.65;71.36;102361.88;5086280;28;45290;-83
2021/11/20 06:04:45;;;;;;;;;0.00;0.00;;;;;9.71;71.20;102368.19;5084374;28;48092;-82
2021/11/20 06:07:11;;;;;;;;;0.00;0.00;;;;;9.56;71.02;102339.88;5085580;28;45331;-83
2021/11/20 06:09:38;;;;;;;;;0.00;0.00;;;;;9.76;71.06;102382.25;5084191;28;45189;-82
2021/11/20 06:12:04;;;;;;;;;0.00;0.00;;;;;9.68;71.00;102369.78;5086006;28;45397;-83
2021/11/20 06:14:30;;;;;;;;;0.00;0.00;;;;;9.63;71.48;102364.41;5085572;28;45355;-83
2021/11/20 06:16:55;;;;;;;;;0.00;0.00;;;;;9.63;71.13;102357.50;5085570;28;45242;-83
2021/11/20 06:19:20;;;;;;;;;0.00;0.00;;;;;9.47;71.12;102327.41;5067540;28;45805;-83
2021/11/20 06:21:46;;;;;;;;;0.00;0.00;;;;;9.32;71.01;102312.13;5067409;28;45616;-83
2021/11/20 06:24:11;;;;;;;;;0.00;0.00;;;;;9.66;71.41;102359.34;5085064;28;45791;-83
2021/11/20 06:26:37;;;;;;;;;0.00;0.00;;;;;9.48;71.48;102342.19;5085030;28;45248;-82
2021/11/20 06:29:04;;;;;;;;;0.00;0.00;;;;;9.45;71.29;102326.47;5085720;28;45310;-83
2021/11/20 06:31:29;;;;;;;;;0.00;0.00;;;;;9.65;71.68;102352.38;5084612;28;45526;-83
2021/11/20 06:33:56;;;;;;;;;0.00;0.00;;;;;9.72;71.66;102366.47;5084714;28;45707;-83
2021/11/20 06:36:22;;;;;;;;;0.00;0.00;;;;;9.52;71.35;102340.59;5084955;28;45290;-83
2021/11/20 06:38:48;;;;;;;;;0.00;0.00;;;;;9.65;71.46;102367.06;5085181;28;45268;-83
2021/11/20 06:41:13;;;;;;;;;0.00;0.00;;;;;9.40;71.23;102335.78;5085236;28;45162;-82
2021/11/20 06:43:39;;;;;;;;;0.00;0.00;;;;;9.54;71.43;102367.53;5085383;28;46122;-83
2021/11/20 06:46:08;;;;;;;;;0.00;0.00;;;;;9.51;71.10;102375.22;5085392;28;45232;-83
2021/11/20 06:48:34;;;;;;;;;0.00;0.00;;;;;9.44;71.35;102379.31;5067859;28;45320;-82
2021/11/20 06:51:00;;;;;;;;;0.00;0.00;;;;;9.35;71.72;102360.72;5085008;28;45352;-83
2021/11/20 06:53:27;;;;;;;;;0.00;0.00;;;;;9.41;71.60;102367.88;5084257;28;47036;-83
2021/11/20 06:55:52;;;;;;;;;0.00;0.00;;;;;9.41;71.53;102370.47;5084266;28;45303;-82
2021/11/20 07:01:12;;;;;;;;;0.00;0.00;;;;;9.58;71.78;102356.44;5085067;28;45223;-82
2021/11/20 07:03:42;;;;;;;;;0.50;0.50;;;;;9.66;71.81;102355.84;5078192;28;46539;-82
2021/11/20 07:06:29;;;;;;;;;1.00;0.00;;;;;9.63;71.64;102361.81;5084390;28;45474;-83
2021/11/20 07:08:56;;;;;;;;;0.00;0.00;;;;;9.50;71.63;102347.47;5084444;28;45307;-83
2021/11/20 07:11:23;;;;;;;;;0.00;0.00;;;;;9.44;71.67;102334.22;5083581;28;45357;-83
2021/11/20 07:13:50;;;;;;;;;0.00;0.00;;;;;9.28;71.71;102296.34;5084283;28;45275;-83
2021/11/20 07:16:18;;;;;;;;;0.00;0.00;;;;;9.48;71.79;102323.09;5084562;28;45247;-83
2021/11/20 07:18:44;;;;;;;;;1.00;0.00;;;;;9.52;71.57;102331.91;5082954;28;45325;-83
2021/11/20 07:21:10;;;;;;;;;0.00;0.00;;;;;9.51;71.65;102333.63;5084202;28;45323;-83
2021/11/20 07:23:36;;;;;;;;;0.00;0.00;;;;;9.61;71.81;102337.44;5065768;28;47381;-83
2021/11/20 07:26:03;;;;;;;;;1.00;0.00;;;;;9.61;71.41;102335.75;5084280;28;45255;-83
2021/11/20 07:28:28;;;;;;;;;0.00;0.00;;;;;9.42;71.55;102323.75;5067252;28;45340;-83
2021/11/20 07:30:54;;;;;;;;;0.00;0.00;;;;;9.47;71.80;102352.53;5084347;28;45253;-83
2021/11/20 07:33:20;;;;;;;;;0.00;0.00;;;;;9.21;72.28;102311.69;5083355;28;46203;-83
2021/11/20 07:35:54;;;;;;;;;0.00;0.00;;;;;9.34;71.90;102320.84;5083929;28;45168;-84
2021/11/20 07:38:25;;;;;;;;;0.00;0.00;;;;;9.58;71.79;102355.53;5081622;28;45259;-80
2021/11/20 07:40:51;;;;;;;;;0.00;0.00;;;;;9.17;71.93;102301.09;5084298;28;45311;-83
2021/11/20 07:43:17;;;;;;;;;0.00;0.00;;;;;9.47;71.93;102352.53;5083867;28;46236;-82
2021/11/20 07:45:43;;;;;;;;;0.00;0.00;;;;;9.19;72.32;102312.47;5083724;28;45247;-82
2021/11/20 07:48:12;;;;;;;;;0.00;0.00;;;;;9.50;71.98;102365.66;5084011;28;45290;-83
2021/11/20 07:50:39;;;;;;;;;0.50;0.50;;;;;9.58;72.23;102361.63;5084121;28;45260;-82
2021/11/20 07:53:04;;;;;;;;;0.00;0.00;;;;;9.63;72.34;102354.00;5067559;28;47642;-82
2021/11/20 07:55:30;;;;;;;;;0.00;0.00;;;;;9.59;72.36;102349.53;5083646;28;45377;-83
2021/11/20 07:57:55;;;;;;;;;0.00;0.00;;;;;8.98;72.05;102240.63;5085323;28;45240;-82
2021/11/20 08:00:22;;;;;;;;;0.00;0.00;;;;;8.99;71.84;102251.09;5084045;28;45279;-83
2021/11/20 08:02:48;;;;;;;;;1.25;0.00;;;;;9.62;71.98;102358.31;5065218;28;47414;-83
2021/11/20 08:05:14;;;;;;;;;0.00;0.00;;;;;9.56;71.78;102337.28;5084256;28;45278;-83
2021/11/20 08:07:40;;;;;;;;;0.00;0.00;;;;;9.66;71.89;102351.53;5082584;28;45252;-82
2021/11/20 08:10:09;;;;;;;;;0.00;0.00;;;;;9.51;71.87;102318.03;5085292;28;45242;-83
2021/11/20 08:12:34;;;;;;;;;0.00;0.00;;;;;9.68;71.43;102343.78;5065042;28;47374;-83
2021/11/20 08:15:00;;;;;;;;;2.00;0.00;;;;;9.71;71.60;102347.38;5082904;28;45362;-83
2021/11/20 08:17:25;;;;;;;;;1.00;1.00;;;;;9.70;71.60;102348.22;5083246;28;45299;-83
2021/11/20 08:19:51;;;;;;;;;1.00;0.00;;;;;9.64;71.53;102327.16;5083350;28;45564;-83
2021/11/20 08:22:17;;;;;;;;;0.00;0.00;;;;;9.76;71.22;102340.66;5083336;28;45899;-83
2021/11/20 08:24:42;;;;;;;;;0.00;0.00;;;;;9.59;70.95;102319.19;5083088;28;45197;-83
2021/11/20 08:27:09;;;;;;;;;0.00;0.00;;;;;9.82;70.74;102355.59;5083291;28;45206;-83
2021/11/20 08:29:37;;;;;;;;;0.00;0.00;;;;;9.85;70.92;102353.13;5083608;28;45534;-83
2021/11/20 08:32:07;;;;;;;;;0.00;0.00;;;;;9.91;70.91;102354.16;5072788;28;48481;-83
2021/11/20 08:34:34;;;;;;;;;0.00;0.00;;;;;9.55;70.79;102293.91;5085446;28;45304;-83
2021/11/20 08:37:00;;;;;;;;;0.50;0.50;;;;;9.92;70.71;102343.81;5083518;28;45251;-83
2021/11/20 08:39:26;;;;;;;;;2.25;0.50;;;;;9.73;70.91;102309.31;5082905;28;45607;-83
2021/11/20 08:41:51;;;;;;;;;0.00;0.00;;;;;9.68;70.84;102304.78;5082896;28;45367;-83
2021/11/20 08:44:17;;;;;;;;;0.00;0.00;;;;;9.87;70.81;102341.03;5082654;28;45385;-83
2021/11/20 08:46:44;;;;;;;;;0.00;0.00;;;;;9.81;70.89;102306.13;5081748;28;45282;-83
2021/11/20 08:49:11;;;;;;;;;0.00;0.00;;;;;10.00;70.92;102326.78;5082635;28;45455;-83
2021/11/20 08:51:38;;;;;;;;;0.00;0.00;;;;;9.93;70.91;102305.69;5064420;28;48121;-83
2021/11/20 08:54:05;;;;;;;;;0.00;0.00;;;;;9.88;70.78;102282.09;5082762;28;45285;-83
2021/11/20 08:56:33;;;;;;;;;0.00;0.00;;;;;10.10;70.76;102309.78;5082856;28;45262;-84
2021/11/20 08:58:59;;;;;;;;;0.00;0.00;;;;;10.01;70.46;102289.53;5064471;28;45454;-83
2021/11/20 09:01:31;;;;;;;;;0.00;0.00;;;;;10.01;70.34;102294.72;5082543;28;45358;-83
2021/11/20 09:04:23;;;;;;;;;2.50;1.25;;;;;10.09;70.44;102305.41;5082639;28;46304;-84
2021/11/20 09:06:51;;;;;;;;;0.00;0.00;;;;;9.90;70.01;102280.47;5071604;28;45273;-83
2021/11/20 09:09:25;;;;;;;;;0.00;0.00;;;;;9.98;70.29;102302.41;5082176;28;45345;-83
2021/11/20 09:11:58;;;;;;;;;0.00;0.00;;;;;9.98;70.16;102296.31;5082258;28;45619;-83
2021/11/20 09:14:37;;;;;;;;;0.00;0.00;;;;;9.91;70.51;102287.41;5082660;28;45205;-83
2021/11/20 09:17:03;;;;;;;;;0.75;0.75;;;;;9.95;70.25;102278.03;5082680;28;45331;-83
2021/11/20 09:19:32;;;;;;;;;2.25;0.25;;;;;10.08;70.18;102303.63;5080965;28;45420;-83
2021/11/20 09:21:59;;;;;;;;;0.00;0.00;;;;;10.11;70.25;102295.06;5063524;28;46925;-83
2021/11/20 09:24:28;;;;;;;;;0.50;0.50;;;;;10.07;70.38;102283.66;5063794;28;45270;-83
2021/11/20 09:26:55;;;;;;;;;0.50;0.50;;;;;9.96;70.49;102265.03;5064219;28;45422;-82
2021/11/20 09:29:23;;;;;;;;;2.00;0.00;;;;;10.10;70.28;102281.16;5082568;28;45277;-83
2021/11/20 09:31:50;;;;;;;;;0.00;0.00;;;;;10.03;70.35;102273.97;5081852;28;46371;-85
2021/11/20 09:34:16;;;;;;;;;1.75;1.75;;;;;10.04;70.21;102286.13;5063385;28;45345;-83
2021/11/20 09:36:43;;;;;;;;;0.00;0.00;;;;;10.02;70.22;102287.81;5082252;28;45307;-83
2021/11/20 09:39:11;;;;;;;;;0.00;0.00;;;;;9.84;70.46;102242.09;5082307;28;45469;-83
2021/11/20 09:41:39;;;;;;;;;0.00;0.00;;;;;10.09;70.65;102286.31;5082315;28;45651;-83
2021/11/20 09:44:13;;;;;;;;;0.00;0.00;;;;;9.76;70.07;102243.53;5063815;28;45261;-83
2021/11/20 09:46:45;;;;;;;;;0.00;0.00;;;;;10.00;70.44;102282.56;5082632;28;45244;-83
2021/11/20 09:49:17;;;;;;;;;0.00;0.00;;;;;9.92;70.11;102257.97;5082625;28;45327;-83
2021/11/20 09:51:46;;;;;;;;;0.25;0.00;;;;;9.94;70.21;102290.13;5086896;28;45426;-83
2021/11/20 09:54:17;;;;;;;;;1.75;1.00;;;;;9.83;70.29;102270.66;5087378;28;45278;-83
2021/11/20 09:57:02;;;;;;;;;0.00;0.00;;;;;9.79;70.34;102258.34;5083753;28;45372;-83
2021/11/20 09:59:40;;;;;;;;;0.00;0.00;;;;;9.88;70.26;102263.91;5065004;28;45323;-84
2021/11/20 10:02:29;;;;;;;;;1.25;0.00;;;;;9.67;70.24;102231.06;5067342;28;47417;-83
2021/11/20 10:05:16;;;;;;;;;0.00;0.00;;;;;9.93;70.06;102270.16;5085930;28;45248;-82
2021/11/20 10:07:45;;;;;;;;;0.00;0.00;;;;;9.90;69.90;102264.84;5084478;28;45418;-82
2021/11/20 10:10:32;;;;;;;;;0.00;0.00;;;;;9.91;70.04;102250.09;5085660;28;45284;-82
2021/11/20 10:13:03;;;;;;;;;0.00;0.00;;;;;10.04;69.83;102261.88;5085254;28;45461;-83
2021/11/20 10:15:36;;;;;;;;;0.00;0.00;;;;;10.04;69.58;102249.72;5085125;28;45343;-82
2021/11/20 10:18:13;;;;;;;;;0.00;0.00;;;;;9.94;69.38;102256.31;5085509;28;45368;-82
2021/11/20 10:20:45;;;;;;;;;0.00;0.00;;;;;9.98;69.91;102253.00;5085086;28;45341;-82
2021/11/20 10:23:26;;;;;;;;;0.00;0.00;;;;;10.02;69.62;102247.06;5083257;28;48250;-83
2021/11/20 10:26:26;;;;;;;;;0.00;0.00;;;;;9.87;69.74;102217.91;5084973;28;45258;-83
2021/11/20 10:29:26;;;;;;;;;0.00;0.00;;;;;9.82;69.81;102201.25;5084793;28;45436;-83
2021/11/20 10:32:13;;;;;;;;;0.00;0.00;;;;;10.10;69.79;102239.53;5084767;28;45525;-82
2021/11/20 10:34:50;;;;;;;;;1.00;0.75;;;;;10.14;69.64;102228.38;5067741;28;46134;-82
2021/11/20 10:37:26;;;;;;;;;1.00;0.25;;;;;10.16;69.79;102231.03;5090611;28;45512;-82
2021/11/20 10:39:55;;;;;;;;;0.00;0.00;;;;;10.01;69.73;102207.97;5068450;28;44715;-82
2021/11/20 10:42:38;;;;;;;;;0.00;0.00;;;;;10.09;69.55;102232.56;5066878;28;45324;-82
2021/11/20 10:45:16;;;;;;;;;2.50;1.00;;;;;9.84;69.41;102203.09;5084781;28;45512;-83
2021/11/20 10:47:52;;;;;;;;;0.00;0.00;;;;;9.71;69.38;102190.47;5084528;28;45365;-83
2021/11/20 10:50:32;;;;;;;;;0.00;0.00;;;;;9.89;69.59;102224.94;5084335;28;45338;-83
2021/11/20 10:53:26;;;;;;;;;0.00;0.00;;;;;9.85;69.33;102216.97;5066238;28;45448;-85
2021/11/20 10:55:54;;;;;;;;;0.00;0.00;;;;;9.77;69.86;102208.88;5067813;28;46769;-82
2021/11/20 10:58:58;;;;;;;;;0.00;0.00;;;;;9.79;69.85;102204.63;5067220;28;45414;-84
2021/11/20 11:01:41;;;;;;;;;1.75;1.00;;;;;9.84;69.80;102200.50;5002365;28;45639;-84
2021/11/20 11:04:41;;;;;;;;;1.00;0.75;;;;;9.87;69.98;102200.56;5080007;28;45609;-83
2021/11/20 11:07:26;;;;;;;;;1.00;0.00;;;;;9.85;69.40;102183.16;5085269;28;46111;-83
2021/11/20 11:10:04;;;;;;;;;1.00;1.00;;;;;9.74;69.68;102154.19;5065794;28;45279;-83
2021/11/20 11:12:54;;;;;;;;;1.25;0.00;;;;;9.80;69.67;102132.72;5085057;28;45265;-82
2021/11/20 11:15:29;;;;;;;;;0.00;0.00;;;;;10.07;69.59;102163.97;5068002;28;45337;-82
2021/11/20 11:18:16;;;;;;;;;0.00;0.00;;;;;10.15;69.26;102161.63;5073204;28;47161;-83
2021/11/20 11:20:45;;;;;;;;;0.00;0.00;;;;;10.19;69.28;102150.47;5082761;28;44661;-80
2021/11/20 11:23:56;;;;;;;;;0.50;0.50;;;;;10.16;68.98;102146.91;5094711;28;45101;-82
2021/11/20 11:26:28;;;;;;;;;0.75;0.75;;;;;10.05;69.31;102143.94;5062280;28;45314;-83
2021/11/20 11:29:12;;;;;;;;;0.00;0.00;;;;;10.06;69.09;102148.28;5083014;28;47657;-83
2021/11/20 11:31:40;;;;;;;;;0.00;0.00;;;;;9.80;69.07;102093.69;5084418;28;45338;-84
2021/11/20 11:34:25;;;;;;;;;0.00;0.00;;;;;10.12;69.06;102135.50;5084174;28;45287;-81
2021/11/20 11:37:01;;;;;;;;;2.50;2.00;;;;;10.11;69.28;102128.53;5066571;28;45485;-82
2021/11/20 11:39:51;;;;;;;;;1.00;1.00;;;;;10.07;68.99;102101.50;5082560;28;46081;-83
2021/11/20 11:42:52;;;;;;;;;0.00;0.00;;;;;10.17;69.08;102105.28;5066465;28;46210;-83
2021/11/20 11:45:35;;;;;;;;;1.50;0.00;;;;;10.06;68.88;102080.66;5085027;28;45369;-83